logo
Search for airport 
image banner adimage banner adimage banner ad
image banner ad

LFVM - Miquelon

Located in Miquelon, Saint Pierre and Miquelon

ICAO - LFVM, IATA - MQC

Data provided by Airmate  

General information

Coordinates: N47°5'45" W56°23'4"
Elevation is 10 feet MSL.
Magnetic variation is -17.91° East
Rated:
View ratings:
[VIEW]
View others Airports in Miquelon-Longlade

Operational data

Special qualification required
Current time UTC:
Current local time:
Weather at : LFVP - Saint Pierre ( 40 km )
METAR: LFVP 021030Z AUTO 36009KT 9999 FEW034 M09/M14 Q1018 NOSIG
TAF: TAF LFVP 020900Z 0210/0218 36010KT 9999 BKN025 BECMG 0213/0215 26010KT
View NOTAMs / SUP AIP / TFR affecting this airport [VIEW]
Communications frequencies: [VIEW]

Runways:

RWY identifierQFULength (ft)Width (ft)SurfaceLDA (ft)
1298°328166ASPH2920
30278°328166ASPH3281

Airport contact information

Address: Miquelon Saint Pierre and Miquelon

Satellite view of LFVM